sensor_id;sensor_type;location;lat;lon;timestamp;temperature;humidity
13446;DHT22;6795;51.232;3.764;2023-03-15T00:02:05;3.80;99.90
13446;DHT22;6795;51.232;3.764;2023-03-15T00:04:35;3.80;99.90
13446;DHT22;6795;51.232;3.764;2023-03-15T00:07:04;3.80;99.90
13446;DHT22;6795;51.232;3.764;2023-03-15T00:09:32;3.80;99.90
13446;DHT22;6795;51.232;3.764;2023-03-15T00:12:01;3.80;99.90
13446;DHT22;6795;51.232;3.764;2023-03-15T00:14:30;3.70;99.90
13446;DHT22;6795;51.232;3.764;2023-03-15T00:16:58;3.60;99.90
13446;DHT22;6795;51.232;3.764;2023-03-15T00:19:27;3.50;99.90
13446;DHT22;6795;51.232;3.764;2023-03-15T00:21:57;3.50;99.90
13446;DHT22;6795;51.232;3.764;2023-03-15T00:24:25;3.50;99.90
13446;DHT22;6795;51.232;3.764;2023-03-15T00:26:54;3.50;99.90
13446;DHT22;6795;51.232;3.764;2023-03-15T00:29:22;3.50;99.90
13446;DHT22;6795;51.232;3.764;2023-03-15T00:31:50;3.40;99.90
13446;DHT22;6795;51.232;3.764;2023-03-15T00:34:19;3.40;99.90
13446;DHT22;6795;51.232;3.764;2023-03-15T00:36:50;3.20;99.90
13446;DHT22;6795;51.232;3.764;2023-03-15T00:39:21;3.20;99.90
13446;DHT22;6795;51.232;3.764;2023-03-15T00:41:51;3.20;99.90
13446;DHT22;6795;51.232;3.764;2023-03-15T00:44:23;3.10;99.90
13446;DHT22;6795;51.232;3.764;2023-03-15T00:46:52;3.20;99.90
13446;DHT22;6795;51.232;3.764;2023-03-15T00:49:20;3.20;99.90
13446;DHT22;6795;51.232;3.764;2023-03-15T00:51:49;3.20;99.90
13446;DHT22;6795;51.232;3.764;2023-03-15T00:54:17;3.30;99.90
13446;DHT22;6795;51.232;3.764;2023-03-15T00:56:51;3.30;99.90
13446;DHT22;6795;51.232;3.764;2023-03-15T00:59:19;3.40;99.90
13446;DHT22;6795;51.232;3.764;2023-03-15T01:01:48;3.50;99.90
13446;DHT22;6795;51.232;3.764;2023-03-15T01:04:17;3.50;99.90
13446;DHT22;6795;51.232;3.764;2023-03-15T01:06:45;3.60;99.90
13446;DHT22;6795;51.232;3.764;2023-03-15T01:09:14;3.60;99.90
13446;DHT22;6795;51.232;3.764;2023-03-15T01:11:42;3.50;99.90
13446;DHT22;6795;51.232;3.764;2023-03-15T01:14:12;3.60;99.90
13446;DHT22;6795;51.232;3.764;2023-03-15T01:16:40;3.60;99.90
13446;DHT22;6795;51.232;3.764;2023-03-15T01:19:09;3.60;99.90
13446;DHT22;6795;51.232;3.764;2023-03-15T01:21:38;3.60;99.90
13446;DHT22;6795;51.232;3.764;2023-03-15T01:24:09;3.60;99.90
13446;DHT22;6795;51.232;3.764;2023-03-15T01:26:39;3.60;99.90
13446;DHT22;6795;51.232;3.764;2023-03-15T01:29:07;3.60;99.90
13446;DHT22;6795;51.232;3.764;2023-03-15T01:31:37;3.60;99.90
13446;DHT22;6795;51.232;3.764;2023-03-15T01:34:06;3.60;99.90
13446;DHT22;6795;51.232;3.764;2023-03-15T01:36:35;3.50;99.90
13446;DHT22;6795;51.232;3.764;2023-03-15T01:39:03;3.50;99.90
13446;DHT22;6795;51.232;3.764;2023-03-15T01:41:32;3.50;99.90
13446;DHT22;6795;51.232;3.764;2023-03-15T01:44:00;3.40;99.90
13446;DHT22;6795;51.232;3.764;2023-03-15T01:46:30;3.30;99.90
13446;DHT22;6795;51.232;3.764;2023-03-15T01:49:05;3.30;99.90
13446;DHT22;6795;51.232;3.764;2023-03-15T01:51:38;3.30;99.90
13446;DHT22;6795;51.232;3.764;2023-03-15T01:54:13;3.20;99.90
13446;DHT22;6795;51.232;3.764;2023-03-15T01:56:46;3.30;99.90
13446;DHT22;6795;51.232;3.764;2023-03-15T01:59:25;3.40;99.90
13446;DHT22;6795;51.232;3.764;2023-03-15T02:01:54;3.40;99.90
13446;DHT22;6795;51.232;3.764;2023-03-15T02:04:28;3.40;99.90
13446;DHT22;6795;51.232;3.764;2023-03-15T02:06:59;3.50;99.90
13446;DHT22;6795;51.232;3.764;2023-03-15T02:09:36;3.60;99.90
13446;DHT22;6795;51.232;3.764;2023-03-15T02:12:08;3.60;99.90
13446;DHT22;6795;51.232;3.764;2023-03-15T02:14:37;3.70;99.90
13446;DHT22;6795;51.232;3.764;2023-03-15T02:17:06;3.70;99.90
13446;DHT22;6795;51.232;3.764;2023-03-15T02:19:45;3.80;99.90
13446;DHT22;6795;51.232;3.764;2023-03-15T02:22:25;3.80;99.90
13446;DHT22;6795;51.232;3.764;2023-03-15T02:25:00;3.70;99.90
13446;DHT22;6795;51.232;3.764;2023-03-15T02:27:33;3.70;99.90
13446;DHT22;6795;51.232;3.764;2023-03-15T02:30:03;3.60;99.90
13446;DHT22;6795;51.232;3.764;2023-03-15T02:32:32;3.60;99.90
13446;DHT22;6795;51.232;3.764;2023-03-15T02:35:02;3.50;99.90
13446;DHT22;6795;51.232;3.764;2023-03-15T02:37:31;3.50;99.90
13446;DHT22;6795;51.232;3.764;2023-03-15T02:40:00;3.50;99.90
13446;DHT22;6795;51.232;3.764;2023-03-15T02:42:29;3.50;99.90
13446;DHT22;6795;51.232;3.764;2023-03-15T02:44:59;3.60;99.90
13446;DHT22;6795;51.232;3.764;2023-03-15T02:47:31;3.70;99.90
13446;DHT22;6795;51.232;3.764;2023-03-15T02:50:00;3.80;99.90
13446;DHT22;6795;51.232;3.764;2023-03-15T02:52:29;3.70;99.90
13446;DHT22;6795;51.232;3.764;2023-03-15T02:54:57;3.70;99.90
13446;DHT22;6795;51.232;3.764;2023-03-15T02:57:28;3.80;99.90
13446;DHT22;6795;51.232;3.764;2023-03-15T02:59:56;3.80;99.90
13446;DHT22;6795;51.232;3.764;2023-03-15T03:02:27;3.80;99.90
13446;DHT22;6795;51.232;3.764;2023-03-15T03:04:56;3.70;99.90
13446;DHT22;6795;51.232;3.764;2023-03-15T03:07:24;3.60;99.90
13446;DHT22;6795;51.232;3.764;2023-03-15T03:09:53;3.50;99.90
13446;DHT22;6795;51.232;3.764;2023-03-15T03:12:21;3.40;99.90
13446;DHT22;6795;51.232;3.764;2023-03-15T03:14:50;3.40;99.90
13446;DHT22;6795;51.232;3.764;2023-03-15T03:17:18;3.30;99.90
13446;DHT22;6795;51.232;3.764;2023-03-15T03:19:48;3.30;99.90
13446;DHT22;6795;51.232;3.764;2023-03-15T03:22:17;3.20;99.90
13446;DHT22;6795;51.232;3.764;2023-03-15T03:24:46;3.10;99.90
13446;DHT22;6795;51.232;3.764;2023-03-15T03:27:14;3.00;99.90
13446;DHT22;6795;51.232;3.764;2023-03-15T03:29:43;2.90;99.90
13446;DHT22;6795;51.232;3.764;2023-03-15T03:32:11;2.90;99.90
13446;DHT22;6795;51.232;3.764;2023-03-15T03:34:40;3.00;99.90
13446;DHT22;6795;51.232;3.764;2023-03-15T03:37:17;2.90;99.90
13446;DHT22;6795;51.232;3.764;2023-03-15T03:39:46;2.80;99.90
13446;DHT22;6795;51.232;3.764;2023-03-15T03:42:14;2.80;99.90
13446;DHT22;6795;51.232;3.764;2023-03-15T03:44:43;2.60;99.90
13446;DHT22;6795;51.232;3.764;2023-03-15T03:47:11;2.40;99.90
13446;DHT22;6795;51.232;3.764;2023-03-15T03:49:40;2.20;99.90
13446;DHT22;6795;51.232;3.764;2023-03-15T03:52:08;2.00;99.90
13446;DHT22;6795;51.232;3.764;2023-03-15T03:54:38;2.10;99.90
13446;DHT22;6795;51.232;3.764;2023-03-15T03:57:09;2.20;99.90
13446;DHT22;6795;51.232;3.764;2023-03-15T03:59:38;2.10;99.90
13446;DHT22;6795;51.232;3.764;2023-03-15T04:02:06;2.00;99.90
13446;DHT22;6795;51.232;3.764;2023-03-15T04:04:35;1.90;99.90
13446;DHT22;6795;51.232;3.764;2023-03-15T04:07:07;1.80;99.90
13446;DHT22;6795;51.232;3.764;2023-03-15T04:09:35;1.70;99.90
13446;DHT22;6795;51.232;3.764;2023-03-15T04:17:03;1.70;99.90
13446;DHT22;6795;51.232;3.764;2023-03-15T05:59:04;1.90;99.90
13446;DHT22;6795;51.232;3.764;2023-03-15T06:01:33;0.90;99.90
13446;DHT22;6795;51.232;3.764;2023-03-15T06:04:01;0.70;99.90
13446;DHT22;6795;51.232;3.764;2023-03-15T06:06:31;0.60;99.90
13446;DHT22;6795;51.232;3.764;2023-03-15T06:08:59;0.60;99.90
13446;DHT22;6795;51.232;3.764;2023-03-15T06:11:28;0.60;99.90
13446;DHT22;6795;51.232;3.764;2023-03-15T06:13:58;0.70;99.90
13446;DHT22;6795;51.232;3.764;2023-03-15T06:16:27;0.80;99.90
13446;DHT22;6795;51.232;3.764;2023-03-15T06:18:55;0.80;99.90
13446;DHT22;6795;51.232;3.764;2023-03-15T06:21:24;0.70;99.90
13446;DHT22;6795;51.232;3.764;2023-03-15T06:23:52;0.70;99.90
13446;DHT22;6795;51.232;3.764;2023-03-15T06:26:20;0.60;99.90
13446;DHT22;6795;51.232;3.764;2023-03-15T06:28:49;0.70;99.90
13446;DHT22;6795;51.232;3.764;2023-03-15T06:31:19;0.80;99.90
13446;DHT22;6795;51.232;3.764;2023-03-15T06:33:48;0.90;99.90
13446;DHT22;6795;51.232;3.764;2023-03-15T06:36:16;1.00;99.90
13446;DHT22;6795;51.232;3.764;2023-03-15T06:38:45;1.00;99.90
13446;DHT22;6795;51.232;3.764;2023-03-15T06:41:14;1.20;99.90
13446;DHT22;6795;51.232;3.764;2023-03-15T06:43:42;1.30;99.90
13446;DHT22;6795;51.232;3.764;2023-03-15T06:46:11;1.40;99.90
13446;DHT22;6795;51.232;3.764;2023-03-15T06:48:41;1.70;99.90
13446;DHT22;6795;51.232;3.764;2023-03-15T06:51:09;1.80;99.90
13446;DHT22;6795;51.232;3.764;2023-03-15T06:53:37;2.00;99.90
13446;DHT22;6795;51.232;3.764;2023-03-15T06:56:06;2.10;99.90
13446;DHT22;6795;51.232;3.764;2023-03-15T06:58:35;2.20;99.90
13446;DHT22;6795;51.232;3.764;2023-03-15T07:01:04;2.40;99.90
13446;DHT22;6795;51.232;3.764;2023-03-15T07:03:32;2.50;99.90
13446;DHT22;6795;51.232;3.764;2023-03-15T07:06:02;2.50;99.90
13446;DHT22;6795;51.232;3.764;2023-03-15T07:08:31;2.40;99.90
13446;DHT22;6795;51.232;3.764;2023-03-15T07:11:01;2.40;99.90
13446;DHT22;6795;51.232;3.764;2023-03-15T07:13:30;2.50;99.90
13446;DHT22;6795;51.232;3.764;2023-03-15T07:15:59;2.70;99.90
13446;DHT22;6795;51.232;3.764;2023-03-15T07:18:27;2.80;99.90
13446;DHT22;6795;51.232;3.764;2023-03-15T07:20:56;2.90;99.90
13446;DHT22;6795;51.232;3.764;2023-03-15T07:23:26;3.10;99.90
13446;DHT22;6795;51.232;3.764;2023-03-15T07:28:24;3.20;99.90
13446;DHT22;6795;51.232;3.764;2023-03-15T07:30:54;3.80;99.90
13446;DHT22;6795;51.232;3.764;2023-03-15T07:33:25;4.00;99.90
13446;DHT22;6795;51.232;3.764;2023-03-15T07:35:54;4.20;99.90
13446;DHT22;6795;51.232;3.764;2023-03-15T07:40:53;4.50;99.90
13446;DHT22;6795;51.232;3.764;2023-03-15T07:43:22;4.80;99.90
13446;DHT22;6795;51.232;3.764;2023-03-15T07:45:51;4.90;99.90
13446;DHT22;6795;51.232;3.764;2023-03-15T07:48:19;5.10;99.90
13446;DHT22;6795;51.232;3.764;2023-03-15T07:50:48;5.00;99.90
13446;DHT22;6795;51.232;3.764;2023-03-15T07:53:17;5.00;99.90
13446;DHT22;6795;51.232;3.764;2023-03-15T07:55:46;5.20;99.90
13446;DHT22;6795;51.232;3.764;2023-03-15T07:58:16;5.30;99.90
13446;DHT22;6795;51.232;3.764;2023-03-15T08:00:52;5.30;99.90
13446;DHT22;6795;51.232;3.764;2023-03-15T08:03:21;5.40;99.90
13446;DHT22;6795;51.232;3.764;2023-03-15T08:05:50;5.60;99.90
13446;DHT22;6795;51.232;3.764;2023-03-15T08:10:47;5.70;99.90
13446;DHT22;6795;51.232;3.764;2023-03-15T08:13:17;5.70;99.90
13446;DHT22;6795;51.232;3.764;2023-03-15T08:18:14;6.10;99.90
13446;DHT22;6795;51.232;3.764;2023-03-15T08:20:43;6.40;99.90
13446;DHT22;6795;51.232;3.764;2023-03-15T08:23:11;6.60;99.90
13446;DHT22;6795;51.232;3.764;2023-03-15T08:30:42;6.90;99.90
13446;DHT22;6795;51.232;3.764;2023-03-15T08:33:10;7.20;99.90
13446;DHT22;6795;51.232;3.764;2023-03-15T08:35:39;7.50;99.90
13446;DHT22;6795;51.232;3.764;2023-03-15T08:38:08;7.60;99.90
13446;DHT22;6795;51.232;3.764;2023-03-15T08:53:24;7.60;99.90
13446;DHT22;6795;51.232;3.764;2023-03-15T08:55:53;7.80;99.90
13446;DHT22;6795;51.232;3.764;2023-03-15T08:58:21;7.60;99.90
13446;DHT22;6795;51.232;3.764;2023-03-15T09:00:50;7.80;99.90
13446;DHT22;6795;51.232;3.764;2023-03-15T09:03:19;8.00;99.90
13446;DHT22;6795;51.232;3.764;2023-03-15T09:05:54;7.80;99.90
13446;DHT22;6795;51.232;3.764;2023-03-15T09:08:23;7.90;99.90
13446;DHT22;6795;51.232;3.764;2023-03-15T09:10:55;8.10;99.90
13446;DHT22;6795;51.232;3.764;2023-03-15T09:20:54;8.50;99.90
13446;DHT22;6795;51.232;3.764;2023-03-15T09:23:23;9.40;99.90
13446;DHT22;6795;51.232;3.764;2023-03-15T09:25:52;9.40;99.90
13446;DHT22;6795;51.232;3.764;2023-03-15T09:28:20;9.50;99.90
13446;DHT22;6795;51.232;3.764;2023-03-15T09:30:51;9.30;99.90
13446;DHT22;6795;51.232;3.764;2023-03-15T09:33:20;9.10;99.90
13446;DHT22;6795;51.232;3.764;2023-03-15T09:35:49;9.00;99.90
13446;DHT22;6795;51.232;3.764;2023-03-15T09:38:38;9.20;99.90
13446;DHT22;6795;51.232;3.764;2023-03-15T09:41:17;9.50;99.90
13446;DHT22;6795;51.232;3.764;2023-03-15T09:46:46;9.20;99.90
13446;DHT22;6795;51.232;3.764;2023-03-15T09:49:30;9.10;99.90
13446;DHT22;6795;51.232;3.764;2023-03-15T09:52:04;9.40;99.90
13446;DHT22;6795;51.232;3.764;2023-03-15T09:54:40;9.50;99.90
13446;DHT22;6795;51.232;3.764;2023-03-15T09:57:16;9.40;99.90
13446;DHT22;6795;51.232;3.764;2023-03-15T09:59:51;9.20;99.90
13446;DHT22;6795;51.232;3.764;2023-03-15T10:02:23;9.70;99.90
13446;DHT22;6795;51.232;3.764;2023-03-15T10:04:57;10.20;99.90
13446;DHT22;6795;51.232;3.764;2023-03-15T10:07:28;10.60;99.90
13446;DHT22;6795;51.232;3.764;2023-03-15T10:09:58;10.60;99.90
13446;DHT22;6795;51.232;3.764;2023-03-15T10:25:25;10.80;99.90
13446;DHT22;6795;51.232;3.764;2023-03-15T10:27:57;11.20;99.90
13446;DHT22;6795;51.232;3.764;2023-03-15T10:30:31;11.40;99.90
13446;DHT22;6795;51.232;3.764;2023-03-15T10:33:02;11.20;99.90
13446;DHT22;6795;51.232;3.764;2023-03-15T10:35:32;11.60;99.90
13446;DHT22;6795;51.232;3.764;2023-03-15T10:38:00;11.90;99.90
13446;DHT22;6795;51.232;3.764;2023-03-15T10:40:42;12.30;99.90
13446;DHT22;6795;51.232;3.764;2023-03-15T10:43:18;12.60;99.90
13446;DHT22;6795;51.232;3.764;2023-03-15T10:45:57;13.10;98.80
13446;DHT22;6795;51.232;3.764;2023-03-15T10:48:28;13.30;99.90
13446;DHT22;6795;51.232;3.764;2023-03-15T10:51:01;13.30;94.70
13446;DHT22;6795;51.232;3.764;2023-03-15T10:53:31;12.80;96.60
13446;DHT22;6795;51.232;3.764;2023-03-15T10:56:05;12.80;95.00
13446;DHT22;6795;51.232;3.764;2023-03-15T10:58:40;12.10;98.70
13446;DHT22;6795;51.232;3.764;2023-03-15T11:01:13;12.00;99.90
13446;DHT22;6795;51.232;3.764;2023-03-15T11:04:01;12.40;99.80
13446;DHT22;6795;51.232;3.764;2023-03-15T11:06:40;12.90;99.40
13446;DHT22;6795;51.232;3.764;2023-03-15T11:09:11;13.20;99.40
13446;DHT22;6795;51.232;3.764;2023-03-15T11:12:06;13.90;98.10
13446;DHT22;6795;51.232;3.764;2023-03-15T11:14:39;13.90;94.40
13446;DHT22;6795;51.232;3.764;2023-03-15T11:17:15;13.80;96.10
13446;DHT22;6795;51.232;3.764;2023-03-15T11:19:53;14.10;94.70
13446;DHT22;6795;51.232;3.764;2023-03-15T11:22:23;14.00;93.30
13446;DHT22;6795;51.232;3.764;2023-03-15T11:24:53;12.80;95.80
13446;DHT22;6795;51.232;3.764;2023-03-15T11:27:23;12.20;98.70
13446;DHT22;6795;51.232;3.764;2023-03-15T11:29:55;11.80;99.10
13446;DHT22;6795;51.232;3.764;2023-03-15T11:32:26;11.30;94.70
13446;DHT22;6795;51.232;3.764;2023-03-15T11:34:59;10.80;95.90
13446;DHT22;6795;51.232;3.764;2023-03-15T11:37:34;10.60;98.30
13446;DHT22;6795;51.232;3.764;2023-03-15T11:40:14;10.90;99.40
13446;DHT22;6795;51.232;3.764;2023-03-15T11:42:48;11.40;96.30
13446;DHT22;6795;51.232;3.764;2023-03-15T11:45:28;11.60;96.80
13446;DHT22;6795;51.232;3.764;2023-03-15T11:48:04;12.30;98.50
13446;DHT22;6795;51.232;3.764;2023-03-15T11:50:36;12.60;95.50
13446;DHT22;6795;51.232;3.764;2023-03-15T11:53:06;12.90;96.50
13446;DHT22;6795;51.232;3.764;2023-03-15T11:55:38;13.00;94.80
13446;DHT22;6795;51.232;3.764;2023-03-15T11:58:27;12.70;94.10
13446;DHT22;6795;51.232;3.764;2023-03-15T12:01:00;12.30;94.70
13446;DHT22;6795;51.232;3.764;2023-03-15T12:03:36;12.50;96.50
13446;DHT22;6795;51.232;3.764;2023-03-15T12:09:45;13.10;91.70
13446;DHT22;6795;51.232;3.764;2023-03-15T12:12:34;13.00;92.30
13446;DHT22;6795;51.232;3.764;2023-03-15T12:15:14;13.20;92.90
13446;DHT22;6795;51.232;3.764;2023-03-15T12:17:44;13.30;91.70
13446;DHT22;6795;51.232;3.764;2023-03-15T12:20:19;13.30;92.40
13446;DHT22;6795;51.232;3.764;2023-03-15T12:22:51;13.40;94.00
13446;DHT22;6795;51.232;3.764;2023-03-15T12:25:24;13.30;92.70
13446;DHT22;6795;51.232;3.764;2023-03-15T12:27:57;13.10;90.70
13446;DHT22;6795;51.232;3.764;2023-03-15T12:30:32;12.90;92.00
13446;DHT22;6795;51.232;3.764;2023-03-15T12:33:13;12.60;92.10
13446;DHT22;6795;51.232;3.764;2023-03-15T12:35:43;12.60;94.30
13446;DHT22;6795;51.232;3.764;2023-03-15T12:38:14;12.50;91.60
13446;DHT22;6795;51.232;3.764;2023-03-15T12:40:49;12.70;92.70
13446;DHT22;6795;51.232;3.764;2023-03-15T12:43:35;13.00;92.80
13446;DHT22;6795;51.232;3.764;2023-03-15T12:46:06;13.40;91.70
13446;DHT22;6795;51.232;3.764;2023-03-15T12:48:35;13.10;91.00
13446;DHT22;6795;51.232;3.764;2023-03-15T12:51:10;13.30;93.00
13446;DHT22;6795;51.232;3.764;2023-03-15T12:53:51;13.40;86.10
13446;DHT22;6795;51.232;3.764;2023-03-15T12:56:42;13.30;90.60
13446;DHT22;6795;51.232;3.764;2023-03-15T12:59:31;13.30;91.20
13446;DHT22;6795;51.232;3.764;2023-03-15T13:02:07;13.20;89.90
13446;DHT22;6795;51.232;3.764;2023-03-15T13:04:43;13.10;88.90
13446;DHT22;6795;51.232;3.764;2023-03-15T13:07:32;13.00;91.30
13446;DHT22;6795;51.232;3.764;2023-03-15T13:10:33;13.10;91.30
13446;DHT22;6795;51.232;3.764;2023-03-15T13:13:09;13.20;90.30
13446;DHT22;6795;51.232;3.764;2023-03-15T13:15:43;13.30;92.20
13446;DHT22;6795;51.232;3.764;2023-03-15T13:18:21;13.10;91.50
13446;DHT22;6795;51.232;3.764;2023-03-15T13:21:04;12.80;91.40
13446;DHT22;6795;51.232;3.764;2023-03-15T13:23:42;12.70;84.40
13446;DHT22;6795;51.232;3.764;2023-03-15T13:26:28;13.20;91.40
13446;DHT22;6795;51.232;3.764;2023-03-15T13:29:01;13.60;91.30
13446;DHT22;6795;51.232;3.764;2023-03-15T13:31:33;13.50;90.30
13446;DHT22;6795;51.232;3.764;2023-03-15T13:34:11;13.20;89.90
13446;DHT22;6795;51.232;3.764;2023-03-15T13:36:43;13.00;91.30
13446;DHT22;6795;51.232;3.764;2023-03-15T13:39:20;12.80;90.90
13446;DHT22;6795;51.232;3.764;2023-03-15T13:41:56;12.60;91.30
13446;DHT22;6795;51.232;3.764;2023-03-15T13:44:27;13.10;91.30
13446;DHT22;6795;51.232;3.764;2023-03-15T13:46:57;13.50;90.70
13446;DHT22;6795;51.232;3.764;2023-03-15T13:49:32;13.80;87.20
13446;DHT22;6795;51.232;3.764;2023-03-15T13:52:03;13.60;88.10
13446;DHT22;6795;51.232;3.764;2023-03-15T13:54:39;12.80;87.20
13446;DHT22;6795;51.232;3.764;2023-03-15T13:57:12;12.10;92.00
13446;DHT22;6795;51.232;3.764;2023-03-15T13:59:45;12.20;92.30
13446;DHT22;6795;51.232;3.764;2023-03-15T14:02:17;12.90;90.70
13446;DHT22;6795;51.232;3.764;2023-03-15T14:04:50;13.30;90.70
13446;DHT22;6795;51.232;3.764;2023-03-15T14:07:28;13.50;88.70
13446;DHT22;6795;51.232;3.764;2023-03-15T14:10:20;14.10;89.50
13446;DHT22;6795;51.232;3.764;2023-03-15T14:12:49;13.90;89.90
13446;DHT22;6795;51.232;3.764;2023-03-15T14:15:21;13.80;86.60
13446;DHT22;6795;51.232;3.764;2023-03-15T14:17:59;13.40;89.70
13446;DHT22;6795;51.232;3.764;2023-03-15T14:20:35;13.30;89.60
13446;DHT22;6795;51.232;3.764;2023-03-15T14:23:08;13.20;88.90
13446;DHT22;6795;51.232;3.764;2023-03-15T14:25:38;12.80;88.20
13446;DHT22;6795;51.232;3.764;2023-03-15T14:28:11;12.70;85.40
13446;DHT22;6795;51.232;3.764;2023-03-15T14:30:41;12.80;90.00
13446;DHT22;6795;51.232;3.764;2023-03-15T14:33:23;12.60;88.60
13446;DHT22;6795;51.232;3.764;2023-03-15T14:35:58;12.50;90.50
13446;DHT22;6795;51.232;3.764;2023-03-15T14:38:32;12.70;87.90
13446;DHT22;6795;51.232;3.764;2023-03-15T14:41:18;12.90;90.30
13446;DHT22;6795;51.232;3.764;2023-03-15T14:43:47;12.50;90.00
13446;DHT22;6795;51.232;3.764;2023-03-15T14:46:15;12.40;90.80
13446;DHT22;6795;51.232;3.764;2023-03-15T14:48:44;12.20;90.50
13446;DHT22;6795;51.232;3.764;2023-03-15T14:51:16;12.20;91.30
13446;DHT22;6795;51.232;3.764;2023-03-15T14:53:45;12.50;91.00
13446;DHT22;6795;51.232;3.764;2023-03-15T14:56:16;12.60;90.90
13446;DHT22;6795;51.232;3.764;2023-03-15T14:58:45;12.80;91.80
13446;DHT22;6795;51.232;3.764;2023-03-15T15:01:18;12.80;90.90
13446;DHT22;6795;51.232;3.764;2023-03-15T15:03:52;12.50;91.40
13446;DHT22;6795;51.232;3.764;2023-03-15T15:06:26;12.40;90.90
13446;DHT22;6795;51.232;3.764;2023-03-15T15:08:56;12.30;90.90
13446;DHT22;6795;51.232;3.764;2023-03-15T15:11:26;12.20;91.20
13446;DHT22;6795;51.232;3.764;2023-03-15T15:13:54;12.10;92.10
13446;DHT22;6795;51.232;3.764;2023-03-15T15:16:24;11.90;90.10
13446;DHT22;6795;51.232;3.764;2023-03-15T15:18:53;12.00;92.00
13446;DHT22;6795;51.232;3.764;2023-03-15T15:21:26;12.20;91.40
13446;DHT22;6795;51.232;3.764;2023-03-15T15:23:57;12.30;91.30
13446;DHT22;6795;51.232;3.764;2023-03-15T15:26:28;12.20;90.70
13446;DHT22;6795;51.232;3.764;2023-03-15T15:28:57;12.10;90.50
13446;DHT22;6795;51.232;3.764;2023-03-15T15:31:28;12.00;91.70
13446;DHT22;6795;51.232;3.764;2023-03-15T15:33:59;11.90;91.30
13446;DHT22;6795;51.232;3.764;2023-03-15T15:36:32;11.70;92.10
13446;DHT22;6795;51.232;3.764;2023-03-15T15:39:02;11.60;91.10
13446;DHT22;6795;51.232;3.764;2023-03-15T15:41:33;11.30;91.70
13446;DHT22;6795;51.232;3.764;2023-03-15T15:44:01;11.10;91.60
13446;DHT22;6795;51.232;3.764;2023-03-15T15:46:30;10.90;91.80
13446;DHT22;6795;51.232;3.764;2023-03-15T15:48:59;10.90;92.20
13446;DHT22;6795;51.232;3.764;2023-03-15T15:51:33;10.60;91.30
13446;DHT22;6795;51.232;3.764;2023-03-15T15:54:04;10.40;92.10
13446;DHT22;6795;51.232;3.764;2023-03-15T15:56:35;10.40;92.80
13446;DHT22;6795;51.232;3.764;2023-03-15T15:59:08;10.40;92.90
13446;DHT22;6795;51.232;3.764;2023-03-15T16:01:39;10.30;94.50
13446;DHT22;6795;51.232;3.764;2023-03-15T16:04:26;10.20;93.30
13446;DHT22;6795;51.232;3.764;2023-03-15T16:06:58;10.10;93.20
13446;DHT22;6795;51.232;3.764;2023-03-15T16:09:30;10.00;93.40
13446;DHT22;6795;51.232;3.764;2023-03-15T16:12:07;9.90;94.90
13446;DHT22;6795;51.232;3.764;2023-03-15T16:14:38;9.90;94.60
13446;DHT22;6795;51.232;3.764;2023-03-15T16:17:11;9.80;94.90
13446;DHT22;6795;51.232;3.764;2023-03-15T16:19:42;9.80;96.10
13446;DHT22;6795;51.232;3.764;2023-03-15T16:22:12;9.80;96.30
13446;DHT22;6795;51.232;3.764;2023-03-15T16:24:42;9.70;96.60
13446;DHT22;6795;51.232;3.764;2023-03-15T16:27:14;9.70;97.10
13446;DHT22;6795;51.232;3.764;2023-03-15T16:29:44;9.60;97.90
13446;DHT22;6795;51.232;3.764;2023-03-15T16:32:18;9.60;97.50
13446;DHT22;6795;51.232;3.764;2023-03-15T16:35:04;9.60;97.70
13446;DHT22;6795;51.232;3.764;2023-03-15T16:40:04;9.60;98.20
13446;DHT22;6795;51.232;3.764;2023-03-15T16:42:36;9.60;97.80
13446;DHT22;6795;51.232;3.764;2023-03-15T16:45:11;9.50;97.60
13446;DHT22;6795;51.232;3.764;2023-03-15T16:47:40;9.50;98.10
13446;DHT22;6795;51.232;3.764;2023-03-15T16:52:40;9.40;97.30
13446;DHT22;6795;51.232;3.764;2023-03-15T16:55:10;9.40;96.70
13446;DHT22;6795;51.232;3.764;2023-03-15T17:00:12;9.30;97.50
13446;DHT22;6795;51.232;3.764;2023-03-15T17:02:45;9.10;97.70
13446;DHT22;6795;51.232;3.764;2023-03-15T17:07:48;9.10;98.20
13446;DHT22;6795;51.232;3.764;2023-03-15T17:10:20;9.00;98.10
13446;DHT22;6795;51.232;3.764;2023-03-15T17:12:49;8.90;98.10
13446;DHT22;6795;51.232;3.764;2023-03-15T17:15:20;8.90;98.30
13446;DHT22;6795;51.232;3.764;2023-03-15T17:17:50;8.80;97.80
13446;DHT22;6795;51.232;3.764;2023-03-15T17:20:20;8.70;98.20
13446;DHT22;6795;51.232;3.764;2023-03-15T17:22:59;8.60;98.50
13446;DHT22;6795;51.232;3.764;2023-03-15T17:25:30;8.50;98.90
13446;DHT22;6795;51.232;3.764;2023-03-15T17:27:59;8.50;98.50
13446;DHT22;6795;51.232;3.764;2023-03-15T17:30:30;8.40;98.60
13446;DHT22;6795;51.232;3.764;2023-03-15T17:33:00;8.30;98.60
13446;DHT22;6795;51.232;3.764;2023-03-15T17:35:31;8.30;99.10
13446;DHT22;6795;51.232;3.764;2023-03-15T17:38:05;8.20;99.40
13446;DHT22;6795;51.232;3.764;2023-03-15T17:40:35;8.10;99.90
13446;DHT22;6795;51.232;3.764;2023-03-15T17:43:03;8.00;99.90
13446;DHT22;6795;51.232;3.764;2023-03-15T17:45:33;7.90;99.90
13446;DHT22;6795;51.232;3.764;2023-03-15T17:48:03;7.80;99.90
13446;DHT22;6795;51.232;3.764;2023-03-15T17:50:32;7.70;99.90
13446;DHT22;6795;51.232;3.764;2023-03-15T17:53:05;7.70;99.90
13446;DHT22;6795;51.232;3.764;2023-03-15T17:55:35;7.70;99.90
13446;DHT22;6795;51.232;3.764;2023-03-15T17:58:09;7.60;99.90
13446;DHT22;6795;51.232;3.764;2023-03-15T18:00:41;7.60;99.90
13446;DHT22;6795;51.232;3.764;2023-03-15T18:03:11;7.50;99.90
13446;DHT22;6795;51.232;3.764;2023-03-15T18:05:41;7.40;99.90
13446;DHT22;6795;51.232;3.764;2023-03-15T18:08:16;7.40;99.90
13446;DHT22;6795;51.232;3.764;2023-03-15T18:10:49;7.30;99.90
13446;DHT22;6795;51.232;3.764;2023-03-15T18:13:20;7.30;99.90
13446;DHT22;6795;51.232;3.764;2023-03-15T18:15:50;7.30;99.90
13446;DHT22;6795;51.232;3.764;2023-03-15T18:18:19;7.20;99.90
13446;DHT22;6795;51.232;3.764;2023-03-15T18:20:49;7.10;99.90
13446;DHT22;6795;51.232;3.764;2023-03-15T18:23:19;7.20;99.90
13446;DHT22;6795;51.232;3.764;2023-03-15T18:25:51;7.10;99.90
13446;DHT22;6795;51.232;3.764;2023-03-15T18:28:21;7.10;99.90
13446;DHT22;6795;51.232;3.764;2023-03-15T18:30:50;7.00;99.90
13446;DHT22;6795;51.232;3.764;2023-03-15T18:33:19;6.90;99.90
13446;DHT22;6795;51.232;3.764;2023-03-15T18:35:48;6.80;99.90
13446;DHT22;6795;51.232;3.764;2023-03-15T18:38:18;6.80;99.90
13446;DHT22;6795;51.232;3.764;2023-03-15T18:40:47;6.70;99.90
13446;DHT22;6795;51.232;3.764;2023-03-15T18:43:17;6.70;99.90
13446;DHT22;6795;51.232;3.764;2023-03-15T18:45:46;6.60;99.90
13446;DHT22;6795;51.232;3.764;2023-03-15T18:48:14;6.50;99.90
13446;DHT22;6795;51.232;3.764;2023-03-15T18:50:45;6.40;99.90
13446;DHT22;6795;51.232;3.764;2023-03-15T18:53:15;6.40;99.90
13446;DHT22;6795;51.232;3.764;2023-03-15T18:55:45;6.30;99.90
13446;DHT22;6795;51.232;3.764;2023-03-15T18:58:14;6.30;99.90
13446;DHT22;6795;51.232;3.764;2023-03-15T19:00:42;6.20;99.90
13446;DHT22;6795;51.232;3.764;2023-03-15T19:03:11;6.20;99.90
13446;DHT22;6795;51.232;3.764;2023-03-15T19:05:40;6.20;99.90
13446;DHT22;6795;51.232;3.764;2023-03-15T19:08:09;6.20;99.90
13446;DHT22;6795;51.232;3.764;2023-03-15T19:10:37;6.10;99.90
13446;DHT22;6795;51.232;3.764;2023-03-15T19:13:07;6.00;99.90
13446;DHT22;6795;51.232;3.764;2023-03-15T19:15:36;6.00;99.90